Course des Découvertes - 04/07/2010

15 Km Nature


Pl Do. Nom - Surname Prénom - Name S-Cat /cat Club - Team TEMPS - Time Km/h /sx
1 15 DUNET Benoit MSE 1 CPLC 01:02:51 14,3 1
2 60 CANTAGREL Nicolas MSE 2 CPLC 01:02:51 14,3 2
3 134 PAULIN DAVID MSE 3 TRI 12 01:05:44 13,7 3
4 25 CHAUFFOUR Vincent MV1 1 Aubrac running 01:06:40 13,5 4
5 128 BONNEFONS ROBERT MV2 1 CPL PRIMAUBE 01:06:41 13,5 5
6 92 BONNEFOY CHRISTIAN MSE 4 NL 01:07:17 13,4 6
7 99 CROUZDT ALAIN MSE 5 NL 01:08:10 13,2 7
8 19 DUPUY Gégory MSE 6 TEAM 12 01:08:54 13,1 8
9 7 AMIEL Frédéric MSE 7   01:09:16 13,0 9
10 18 MAZENC SOPHIE FSE 1 STADE RODEZ ATHLETISME 01:09:32 12,9 1
11 69 BOUDOU Raymond MV2 2 Spiridon aurillac 01:10:53 12,7 10
12 103 BAUDIL LIONEL MV1 2 NL 01:11:11 12,6 11
13 2 LABIT Laurent MSE 8 CPLC 01:11:34 12,6 12
14 40 CHARBONNIER Jean-Claude MV1 3   01:11:46 12,5 13
15 126 LAROUSSE MICHEL MV2 3 NL 01:12:29 12,4 14
16 71 LORTAL Benoit MV1 4 Foulée verte Lalo 01:13:02 12,3 15
17 146 LIBOUREL MICHEL MV1 5 NL 01:13:16 12,3 16
18 47 GAILLARDON Pierre MV2 4 Enfile des baskets 01:13:24 12,3 17
19 133 BLANCHYS JEAN MARIE MV2 5 NL 01:13:33 12,2 18
20 54 LACOMBE Mathieu MSE 9   01:13:48 12,2 19
21 94 CRESPO CHRISTOPHE MSE 10 NL 01:14:19 12,1 20
22 22 PARRA Jean Didier MV1 6 UFOLEP 15 01:15:21 11,9 21
23 77 NAVARETTE ANDRÉ MV1 7 NL 01:15:45 11,9 22
24 98 FARGEAUDOUX GERARD MV1 8 POINTURE 46 01:16:10 11,8 23
25 41 CARLES Claude MV3 1 STADE RUTHÉNOIS ATHLÉ 01:17:19 11,6 24
26 106 OUSTRY GERARD MV2 6 CPL PRIMAUBE 01:17:19 11,6 25
27 21 AUSTRUY Fabien MV1 9 TOUROULIS 01:17:19 11,6 26
28 51 CAVAROC Patrick MV1 10 CE BOSCH 01:17:54 11,6 27
29 114 LEDUC PASCAL MV1 11 NL 01:18:12 11,5 28
30 151 POILLY PIERRE MSE 11 NL 01:18:25 11,5 29
31 78 ASTOUL CHRISTOPHE MES 1 NL 01:18:30 11,5 30
32 104 MAUZAT JEAN PIERRE MV3 2 NL 01:18:49 11,4 31
33 59 GAILLARDON Jean-Claude MV1 12   01:18:56 11,4 32
34 142 CROIZIER JOSSELIN MSE 12 NL 01:19:16 11,4 33
35 90 COUDERT GERARD MV2 7 NL 01:19:29 11,3 34
36 131 PONS SERGE MV1 13 RUNNING CLUB ARPAJON 01:19:35 11,3 35
37 64 MASSOL Joel MV1 14 Courir en levezou 01:19:54 11,3 36
38 12 PEDRO Clément MSE 13   01:20:18 11,2 37
39 124 MARCILHAC GERARD MV2 8 NL 01:20:19 11,2 38
40 10 FAGES Boris MSE 14 VCAN FIRMI 01:20:19 11,2 39
41 49 ROBERT Jean-Claude MV1 15 CE BOSCH 01:20:25 11,2 40
42 20 RIGAUD Alain MV3 3   01:20:34 11,2 41
43 88 IBANEZ GUY MV2 9 VCAN FIRMI 01:20:34 11,2 42
44 118 SALAMACK JACQUES MV2 10 CPL PRIMAUBE 01:20:40 11,2 43
45 97 HERAIL PATRICE MV1 16 NL 01:20:48 11,1 44
46 136 ANGLADE JEAN LOUIS MV2 11 TOUROULIS 01:22:01 11,0 45
47 95 MALBOSC CLAUDE MV3 4 NL 01:22:11 11,0 46
48 86 LOMENECH YANN MSE 15 NL 01:22:20 10,9 47
49 36 COUDERC Cyril MSE 16   01:22:41 10,9 48
50 152 BOULANGER PHILIPPE MV1 17 NL 01:22:48 10,9 49
51 139 POUGET JEAN CLAUDE MV1 18 RUNNING CLUB ARPAJON 01:23:08 10,8 50
52 135 CROIZIER MAGALI FSE 2 NL 01:23:34 10,8 2
53 11 POURCHER Bruno MV2 12   01:23:41 10,8 51
54 34 BERTRANDE Laurent MSE 17 Stade Langonais Athlé 01:23:51 10,7 52
55 141 CAZES LIONEL MSE 18 TEAM 12 01:23:52 10,7 53
56 116 FRANCOVAL PATRICK MV1 19 NL 01:23:56 10,7 54
57 29 POUSSOU Jean MV2 13   01:24:18 10,7 55
58 30 SALESSE Samuel MSE 19   01:24:19 10,7 56
59 72 CARRIERE Audrey FSE 3 ACSA 01:24:39 10,6 3
60 123 ORLOWSKY JEAN-MARC MV1 20 S/L CMO BASSENS 01:24:40 10,6 57
61 89 CABURTHE VINCENT MV1 21 NL 01:24:54 10,6 58
62 96 GINESTET JEROME MSE 20 NL 01:24:58 10,6 59
63 140 ASFEUX STEPHANE MSE 21 NL 01:25:14 10,6 60
64 45 AUGIER Daniel MV2 14 Semelles Usées Rognac 01:25:30 10,5 61
65 100 FRANC MICHEL MV3 5 NL 01:25:48 10,5 62
66 143 CAZLA SEBASTIEN MSE 22 TGUR 01:25:50 10,5 63
67 150 TAMALET CLEMENT MES 2 NL 01:26:13 10,4 64
68 108 CARON MICHEL MSE 23 NL 01:26:19 10,4 65
69 91 MONDOR JOEL MV1 22 NL 01:26:25 10,4 66
70 102 DELBES DANIEL MV2 15 NL 01:26:35 10,4 67
71 85 PAYREFICHE SYLVAIN MSE 24 NL 01:26:36 10,4 68
72 101 GRANIE MARTINE FV1 1 NL 01:26:39 10,4 4
73 80 SALES VINCENT MV1 23 NL 01:27:35 10,3 69
74 93 CAVIALE ALEXANDRE MSE 25   01:27:39 10,3 70
75 132 TILLET SERGE MV2 16 NL 01:27:47 10,3 71
76 154 CARNOS MARIE HELENE FV2 1 La boucle druelloise 01:27:58 10,2 5
77 119 ALBINET REGIS MV1 24 CPL PRIMAUBE 01:27:58 10,2 72
78 16 GANNAC Samuel MSE 26 Foulée verte Lalo 01:28:16 10,2 73
79 57 SALINGARDES Corinne FV1 2   01:28:17 10,2 6
80 149 TAMALET JEREMIE MSE 27 NL 01:28:21 10,2 74
81 32 DELCLAUX Laurent MSE 28   01:28:37 10,2 75
82 46 NOUVEL Bernard MV3 6 Semelles Usées Rognac 01:28:39 10,2 76
83 43 LAURENS Jacques MV2 17 Foulée verte Lalo 01:28:48 10,1 77
84 81 TEYSSEDRE NOËL MSE 29 NL 01:28:50 10,1 78
85 55 LACOMBE Stéphan MJU 1 POMPIER DU BASSIN 01:28:53 10,1 79
86 84 CROS MICHEL MV2 18 CLUB ALPIN 01:29:06 10,1 80
87 67 LABIT Philippe MV1 25 Coureur de fond villeneuve 01:29:10 10,1 81
88 105 MAUZAT BERNADETTE FV3 1 NL 01:29:15 10,1 7
89 122 BOULAY GUILLAUME MSE 30 NL 01:29:29 10,1 82
90 63 LANDES Olivier MSE 31   01:29:55 10,0 83
91 148 MOULY BERNARD MV2 19 NL 01:29:55 10,0 84
92 28 FEL Christian MV2 20   01:29:57 10,0 85
93 127 PARSOT JEAN CLAUDE MV2 21 NL 01:30:08 10,0 86
94 74 NARRE FRANCIS MV2 22 NL 01:30:15 10,0 87
95 65 LACAZE Sebastien MSE 32   01:30:17 10,0 88
96 58 SAINSON Julie FSE 4   01:30:22 10,0 8
97 39 LESTRADE Alain MV2 23   01:30:25 10,0 89
98 13 VIGUIE Damien MES 3   01:30:30 9,9 90
99 113 BARDET EMMANUELLE FSE 5 POINTURE 46 01:30:34 9,9 9
100 112 PEYROL DENIS MV1 26 POINTURE 46 01:30:35 9,9 91
101 138 TESSIER PHILIPPE MV1 27 Kiwi 01:31:14 9,9 92
102 14 DEILHES Sophie FSE 6 RUNNING CLUB ARPAJON 01:31:20 9,9 10
103 115 DAUDE JEAN MARC MV1 28 NL 01:31:50 9,8 93
104 44 GUEROULT Sandra FSE 7 TRI 12 01:32:20 9,7 11
105 137 MARTINEZ ROLAND MV1 29 NL 01:32:39 9,7 94
106 42 RAYNAL Jean-Marie MV3 7 Spiridon 12 01:33:25 9,6 95
107 66 ROQUES Philippe MSE 33 Coureur de fond villeneuve 01:33:32 9,6 96
108 153 CADARS MARIE FRANCOISE FV2 2 NL 01:33:32 9,6 12
109 33 ESPINASSE Michel MV3 8 La boucle druelloise 01:33:33 9,6 97
110 61 DEBAISIEUX Joëlle FV1 3 TEAM 12 01:33:51 9,6 13
111 117 COUDERC GEORGES MV3 9 APC 01:34:31 9,5 98
112 79 GUILLET JEAN PASCAL MV2 24 NL 01:34:55 9,5 99
113 111 ROUX JEAN FRANCOIS MV1 30 Kiwi 01:34:57 9,5 100
114 17 GANNAC Bernard MV2 25 Foulée verte Lalo 01:35:02 9,5 101
115 120 TURLE HENRI MV2 26 NL 01:35:05 9,5 102
116 3 VLEMINCKX Bernard MV3 10   01:35:58 9,4 103
117 130 CHASSAGNE JEAN PIERRE MV2 27 RUNNING CLUB ARPAJON 01:36:17 9,3 104
118 70 MARTY Gilles MV2 28 TEAM 12 01:36:38 9,3 105
119 5 PEDECHES Christian MV1 31 TGVR 01:37:24 9,2 106
120 109 SIRJEAN ELODIE MSE 34 NL 01:37:46 9,2 107
121 82 CRESPO HENRI MV2 29 VCAN FIRMI 01:37:46 9,2 108
122 9 CASTANIER Laetitia FSE 8 TRI 12 01:38:18 9,2 14
123 48 COSMAO Arsene MV2 30 CE BOSCH 01:38:28 9,1 109
124 83 CAMPERGUE ALAIN MV3 11 VCAN FIRMI 01:38:37 9,1 110
125 87 GARCIA NATHALIE FV1 4 VCAN FIRMI 01:39:11 9,1 15
126 144 MARTY DOMINIQUE MV1 32 NL 01:39:21 9,1 111
127 145 GAML MARTY CHRISTINE FV1 5 NL 01:39:22 9,1 16
128 38 BRAS Thierry MV1 33   01:39:27 9,0 112
129 24 MONBOISSE Joëlle FV1 6 AJC Rignac 01:39:50 9,0 17
130 23 PARRA-MONBOISSE Evelyne FV1 7 RUNNING CLUB ARPAJON 01:39:58 9,0 18
131 73 PRIVE Nicole FV2 3 La boucle druelloise 01:40:44 8,9 19
132 37 ROUZIES Stephanie FSE 9   01:41:22 8,9 20
133 68 CARRERAS Frédéric MSE 35   01:42:35 8,8 113
134 35 RUSTAND Serge MV1 34   01:42:41 8,8 114
135 76 GANNAC YVES MV3 12 AJC RIGNAC 01:42:49 8,8 115
136 75 FRIC SOPHIE FV1 8 TOUROULIS 01:43:16 8,7 21
137 62 VERLAGUET Patrice MV1 35 TOUROULIS 01:43:17 8,7 116
138 31 PRADEL Michel MV4 1 TOUROULIS 01:43:34 8,7 117
139 27 UTRILLA Marc MV2 31 Kiwi 01:43:51 8,7 118
140 26 UTRILLA Maryse FV2 4 Kiwi 01:43:51 8,7 22
141 4 VLEMINCKX Evelyne FV3 2   01:45:12 8,6 23
142 107 CRESPO YANNICK MSE 36 NL 01:45:50 8,5 119
143 52 ANDROLOJC Helian MV1 36 CE BOSCH 01:45:50 8,5 120
144 121 NOZERAND DENISE FV2 5 TOUROULIS 01:48:08 8,3 24
145 110 BELVEZE JEAN PIERRE MV2 32 NL 01:49:08 8,2 121
146 50 BOUZINHAC Isabelle FSE 10 CE BOSCH 01:49:28 8,2 25
147 56 SABATHIER Frédéric MSE 37 CE BOSCH 01:49:29 8,2 122
148 1 DUPONT Jean-Christophe MV1 37   01:49:58 8,2 123
149 155 ADAMCZEWSKI JACKY MV3 13 NL 01:56:01 7,8 124
150 125 VRANCKX JEAN CLAUDE MV2 33 AJC Rignac 01:58:33 7,6 125
151 129 DONNADIEU JEAN PIERRE MV3 14 NL 01:59:29 7,5 126
152 147 IMBERT FRANCK MV1 38 Coureur de fond villeneuve 02:00:05 7,5 127
153 8 CASSAN Christine FV1 9   02:00:05 7,5 26